Time;durP1;ratioP1;P1;durP2;ratioP2;P2;SDS_P1;SDS_P2;PMS_P1;PMS_P2;Temp;Humidity;BMP_temperature;BMP_pressure;BME280_temperature;BME280_humidity;BME280_pressure;Samples;Min_cycle;Max_cycle;Signal;HPM_P1;HPM_P2
2023/02/16 00:01:16;;;;;;;7.63;4.10;;;;;;;;;;5051536;28;20451;-68
2023/02/16 00:03:44;;;;;;;5.73;3.77;;;;;;;;;;5051119;28;20457;-68
2023/02/16 00:06:14;;;;;;;5.50;4.33;;;;;;;;;;5051238;28;20455;-69
2023/02/16 00:08:43;;;;;;;9.73;4.30;;;;;;;;;;5013026;28;1068552;-68
2023/02/16 00:13:58;;;;;;;5.37;3.97;;;;;;;;;;5051590;28;20438;-69
2023/02/16 00:16:25;;;;;;;5.37;4.10;;;;;;;;;;5043495;28;20453;-69
2023/02/16 00:18:53;;;;;;;6.23;3.93;;;;;;;;;;5050738;28;20485;-69
2023/02/16 00:21:20;;;;;;;9.03;4.53;;;;;;;;;;5052203;28;20449;-69
2023/02/16 00:23:49;;;;;;;16.97;4.97;;;;;;;;;;5051258;28;20446;-69
2023/02/16 00:26:17;;;;;;;5.03;4.53;;;;;;;;;;5052193;28;20447;-69
2023/02/16 00:28:44;;;;;;;4.90;3.40;;;;;;;;;;5049972;28;20472;-68
2023/02/16 00:31:18;;;;;;;9.67;4.10;;;;;;;;;;5051730;28;20901;-68
2023/02/16 00:33:45;;;;;;;8.10;4.50;;;;;;;;;;5051518;28;20445;-69
2023/02/16 00:36:12;;;;;;;5.63;4.70;;;;;;;;;;5051720;28;20457;-69
2023/02/16 00:38:40;;;;;;;6.17;3.73;;;;;;;;;;5051022;28;20484;-67
2023/02/16 00:41:49;;;;;;;5.00;4.27;;;;;;;;;;5051770;28;20561;-69
2023/02/16 00:44:04;;;;;;;7.20;3.20;;;;;;;;;;5043097;28;20478;-69
2023/02/16 00:46:31;;;;;;;5.80;3.90;;;;;;;;;;5051663;28;20446;-69
2023/02/16 00:48:58;;;;;;;7.40;3.77;;;;;;;;;;5050682;28;20462;-69
2023/02/16 00:51:25;;;;;;;3.57;3.23;;;;;;;;;;5051679;28;20458;-69
2023/02/16 00:53:52;;;;;;;8.23;4.03;;;;;;;;;;5051138;28;20448;-69
2023/02/16 00:56:21;;;;;;;6.00;4.00;;;;;;;;;;5051611;28;20446;-69
2023/02/16 00:58:49;;;;;;;3.57;3.10;;;;;;;;;;5050713;28;20854;-68
2023/02/16 01:01:18;;;;;;;8.40;4.67;;;;;;;;;;5051086;28;20965;-68
2023/02/16 01:03:45;;;;;;;8.67;4.53;;;;;;;;;;5050919;28;20472;-68
2023/02/16 01:11:47;;;;;;;5.93;3.60;;;;;;;;;;5050800;28;20434;-68
2023/02/16 01:14:14;;;;;;;6.57;4.90;;;;;;;;;;5051106;28;20931;-68
2023/02/16 01:16:42;;;;;;;5.00;2.83;;;;;;;;;;5050562;28;20456;-68
2023/02/16 01:19:11;;;;;;;5.40;3.60;;;;;;;;;;5052541;28;20492;-68
2023/02/16 01:21:38;;;;;;;5.00;3.90;;;;;;;;;;5051430;28;20452;-69
2023/02/16 01:24:05;;;;;;;3.03;2.83;;;;;;;;;;5051284;28;20501;-68
2023/02/16 01:26:34;;;;;;;5.37;3.23;;;;;;;;;;5051376;28;20454;-68
2023/02/16 01:29:02;;;;;;;6.63;3.70;;;;;;;;;;5050120;28;20465;-68
2023/02/16 01:31:29;;;;;;;9.40;4.33;;;;;;;;;;5051188;28;20453;-68
2023/02/16 01:33:56;;;;;;;3.47;3.00;;;;;;;;;;5050586;28;20445;-69
2023/02/16 01:36:26;;;;;;;10.90;4.33;;;;;;;;;;5050949;28;20818;-69
2023/02/16 01:38:53;;;;;;;9.27;5.03;;;;;;;;;;5049724;28;20508;-68
2023/02/16 01:41:22;;;;;;;3.33;2.70;;;;;;;;;;5051139;28;20457;-68
2023/02/16 01:43:51;;;;;;;7.00;4.50;;;;;;;;;;5050178;28;20454;-69
2023/02/16 01:46:22;;;;;;;4.90;3.70;;;;;;;;;;5050450;28;20453;-68
2023/02/16 01:48:49;;;;;;;6.33;4.07;;;;;;;;;;5049475;28;20454;-68
2023/02/16 01:51:19;;;;;;;4.87;2.93;;;;;;;;;;5050669;28;20454;-68
2023/02/16 01:53:48;;;;;;;8.20;4.37;;;;;;;;;;5049964;28;20476;-68
2023/02/16 01:56:20;;;;;;;14.57;4.30;;;;;;;;;;5050980;28;20447;-68
2023/02/16 01:58:48;;;;;;;7.37;4.27;;;;;;;;;;5049214;28;20527;-68
2023/02/16 02:01:38;;;;;;;10.30;4.60;;;;;;;;;;5050464;28;20456;-69
2023/02/16 02:06:58;;;;;;;10.37;3.30;;;;;;;;;;5022769;28;20503;-68
2023/02/16 02:09:29;;;;;;;3.77;3.37;;;;;;;;;;5050594;28;20476;-68
2023/02/16 02:11:58;;;;;;;5.37;3.00;;;;;;;;;;5050536;28;20450;-68
2023/02/16 02:14:27;;;;;;;3.77;3.17;;;;;;;;;;5050673;28;20451;-69
2023/02/16 02:16:58;;;;;;;14.50;3.43;;;;;;;;;;5049266;28;20452;-68
2023/02/16 02:19:25;;;;;;;5.90;3.53;;;;;;;;;;5050105;28;20470;-68
2023/02/16 02:25:06;;;;;;;11.53;4.53;;;;;;;;;;5050015;28;20414;-68
2023/02/16 02:27:35;;;;;;;5.43;3.40;;;;;;;;;;5024590;28;20466;-70
2023/02/16 02:30:09;;;;;;;9.30;3.40;;;;;;;;;;5050006;28;20450;-68
2023/02/16 02:32:42;;;;;;;2.70;2.47;;;;;;;;;;5050656;28;20457;-68
2023/02/16 02:35:15;;;;;;;5.70;4.13;;;;;;;;;;5050225;28;20945;-68
2023/02/16 02:37:46;;;;;;;5.43;3.47;;;;;;;;;;5049311;28;20468;-68
2023/02/16 02:40:17;;;;;;;4.57;3.47;;;;;;;;;;5050388;28;20478;-68
2023/02/16 02:42:51;;;;;;;4.47;3.57;;;;;;;;;;5049996;28;20457;-68
2023/02/16 02:45:22;;;;;;;8.53;5.30;;;;;;;;;;5050502;28;20774;-68
2023/02/16 02:47:49;;;;;;;8.63;4.03;;;;;;;;;;5049407;28;20457;-68
2023/02/16 02:50:34;;;;;;;7.87;3.73;;;;;;;;;;5049815;28;20454;-68
2023/02/16 02:53:04;;;;;;;5.93;2.67;;;;;;;;;;5053137;28;20450;-68
2023/02/16 03:01:05;;;;;;;23.13;4.27;;;;;;;;;;5053525;28;20425;-68
2023/02/16 03:03:34;;;;;;;6.93;3.70;;;;;;;;;;5053879;28;20453;-68
2023/02/16 03:06:03;;;;;;;4.83;2.83;;;;;;;;;;5053029;28;20461;-69
2023/02/16 03:08:32;;;;;;;9.80;3.40;;;;;;;;;;5053417;28;20496;-68
2023/02/16 03:13:51;;;;;;;6.30;3.83;;;;;;;;;;5052983;28;20425;-68
2023/02/16 03:16:22;;;;;;;5.37;3.40;;;;;;;;;;5053700;28;20452;-68
2023/02/16 03:29:53;;;;;;;4.93;2.40;;;;;;;;;;5052683;28;20933;-69
2023/02/16 03:32:21;;;;;;;4.43;3.50;;;;;;;;;;5053211;28;20479;-68
2023/02/16 03:34:48;;;;;;;5.63;3.20;;;;;;;;;;5052635;28;20453;-68
2023/02/16 03:37:15;;;;;;;4.10;2.80;;;;;;;;;;5052760;28;20460;-69
2023/02/16 03:42:24;;;;;;;2.67;2.30;;;;;;;;;;5052683;28;20962;-69
2023/02/16 03:44:52;;;;;;;6.30;3.07;;;;;;;;;;5052538;28;20455;-68
2023/02/16 03:47:19;;;;;;;7.10;3.00;;;;;;;;;;5052712;28;20808;-69
2023/02/16 03:49:46;;;;;;;3.87;3.33;;;;;;;;;;5052333;28;20456;-69
2023/02/16 03:52:13;;;;;;;4.83;4.30;;;;;;;;;;5052580;28;20453;-69
2023/02/16 03:54:41;;;;;;;5.87;3.90;;;;;;;;;;5052282;28;20829;-69
2023/02/16 03:57:08;;;;;;;4.90;3.40;;;;;;;;;;5052787;28;20448;-69
2023/02/16 03:59:35;;;;;;;4.90;3.27;;;;;;;;;;5052465;28;20485;-69
2023/02/16 04:02:03;;;;;;;6.83;3.60;;;;;;;;;;5051531;28;20451;-69
2023/02/16 04:04:30;;;;;;;3.70;3.40;;;;;;;;;;5052189;28;20477;-67
2023/02/16 04:06:57;;;;;;;6.50;4.93;;;;;;;;;;5051700;28;20462;-69
2023/02/16 04:09:25;;;;;;;8.43;4.13;;;;;;;;;;5052337;28;20489;-69
2023/02/16 04:14:36;;;;;;;4.90;3.97;;;;;;;;;;5052430;28;20480;-70
2023/02/16 04:17:05;;;;;;;4.87;2.87;;;;;;;;;;5051269;28;20536;-69
2023/02/16 04:19:32;;;;;;;7.73;4.27;;;;;;;;;;5052335;28;20484;-69
2023/02/16 04:21:59;;;;;;;4.30;3.10;;;;;;;;;;5051852;28;20461;-69
2023/02/16 04:24:26;;;;;;;5.37;3.33;;;;;;;;;;5052383;28;20461;-69
2023/02/16 04:26:53;;;;;;;8.00;3.50;;;;;;;;;;5051416;28;20476;-69
2023/02/16 04:29:20;;;;;;;11.10;4.90;;;;;;;;;;5052266;28;20454;-69
2023/02/16 04:31:48;;;;;;;4.07;3.60;;;;;;;;;;5050824;28;20930;-69
2023/02/16 04:34:17;;;;;;;3.23;2.80;;;;;;;;;;5051708;28;20454;-69
2023/02/16 04:36:44;;;;;;;5.00;4.10;;;;;;;;;;5050639;28;20889;-69
2023/02/16 04:39:11;;;;;;;2.80;2.60;;;;;;;;;;5039034;28;20488;-69
2023/02/16 04:41:38;;;;;;;5.33;4.17;;;;;;;;;;5051678;28;20461;-68
2023/02/16 04:44:05;;;;;;;3.90;2.90;;;;;;;;;;5051920;28;20454;-69
2023/02/16 04:46:32;;;;;;;5.13;3.40;;;;;;;;;;5051397;28;20529;-69
2023/02/16 04:49:00;;;;;;;4.70;3.03;;;;;;;;;;5050799;28;20750;-69
2023/02/16 04:51:28;;;;;;;11.10;5.23;;;;;;;;;;5051269;28;20442;-68
2023/02/16 04:53:55;;;;;;;4.13;3.10;;;;;;;;;;5050749;28;20457;-69
2023/02/16 04:56:23;;;;;;;10.23;3.83;;;;;;;;;;5050931;28;20448;-69
2023/02/16 04:58:50;;;;;;;4.37;2.53;;;;;;;;;;5057218;28;20451;-69
2023/02/16 05:01:21;;;;;;;4.20;3.17;;;;;;;;;;5055903;28;20962;-69
2023/02/16 05:03:48;;;;;;;4.47;3.30;;;;;;;;;;5050598;28;20945;-68
2023/02/16 05:06:15;;;;;;;2.27;2.13;;;;;;;;;;5050331;28;20456;-69
2023/02/16 05:08:44;;;;;;;3.37;2.37;;;;;;;;;;5049675;28;20477;-69
2023/02/16 05:16:41;;;;;;;5.33;2.80;;;;;;;;;;5038763;28;20424;-67
2023/02/16 05:19:08;;;;;;;11.70;4.00;;;;;;;;;;5050633;28;20836;-71
2023/02/16 05:21:35;;;;;;;4.70;3.03;;;;;;;;;;5051008;28;20976;-69
2023/02/16 05:24:04;;;;;;;7.80;4.67;;;;;;;;;;5050678;28;20958;-68
2023/02/16 05:26:32;;;;;;;5.57;2.93;;;;;;;;;;5050777;28;20461;-68
2023/02/16 05:28:59;;;;;;;5.30;3.40;;;;;;;;;;5050617;28;20457;-68
2023/02/16 05:31:26;;;;;;;4.97;2.90;;;;;;;;;;5050919;28;20456;-68
2023/02/16 05:33:54;;;;;;;4.93;3.60;;;;;;;;;;5049934;28;20448;-71
2023/02/16 05:36:21;;;;;;;5.20;4.60;;;;;;;;;;5050595;28;20449;-70
2023/02/16 05:38:48;;;;;;;6.37;4.73;;;;;;;;;;5050208;28;20468;-74
2023/02/16 05:41:23;;;;;;;2.37;2.17;;;;;;;;;;5051236;28;20446;-72
2023/02/16 05:43:50;;;;;;;5.33;2.70;;;;;;;;;;5050150;28;20453;-68
2023/02/16 05:46:17;;;;;;;4.83;2.80;;;;;;;;;;5050404;28;20458;-68
2023/02/16 05:48:44;;;;;;;5.60;3.23;;;;;;;;;;5050082;28;20456;-68
2023/02/16 05:51:11;;;;;;;5.73;3.43;;;;;;;;;;5050852;28;20450;-69
2023/02/16 05:53:38;;;;;;;6.30;3.60;;;;;;;;;;5050773;28;20449;-72
2023/02/16 05:56:06;;;;;;;8.43;4.13;;;;;;;;;;5050985;28;20446;-74
2023/02/16 05:58:34;;;;;;;10.40;3.20;;;;;;;;;;5036986;28;20450;-71
2023/02/16 06:01:01;;;;;;;7.70;4.20;;;;;;;;;;5048799;28;20483;-72
2023/02/16 06:03:28;;;;;;;4.87;3.20;;;;;;;;;;5050729;28;20557;-72
2023/02/16 06:05:56;;;;;;;5.40;3.53;;;;;;;;;;5049940;28;20450;-72
2023/02/16 06:08:24;;;;;;;5.93;3.00;;;;;;;;;;5051013;28;20488;-72
2023/02/16 06:10:51;;;;;;;3.70;3.30;;;;;;;;;;5050067;28;20949;-71
2023/02/16 06:13:18;;;;;;;4.90;4.10;;;;;;;;;;5050911;28;20446;-72
2023/02/16 06:15:47;;;;;;;5.33;4.10;;;;;;;;;;5050271;28;20457;-72
2023/02/16 06:18:14;;;;;;;7.80;3.47;;;;;;;;;;5050990;28;20456;-72
2023/02/16 06:20:42;;;;;;;4.87;3.80;;;;;;;;;;5049583;28;20475;-72
2023/02/16 06:23:11;;;;;;;8.47;3.30;;;;;;;;;;5050706;28;20461;-72
2023/02/16 06:25:38;;;;;;;9.20;5.10;;;;;;;;;;5051024;28;20452;-72
2023/02/16 06:28:05;;;;;;;2.90;2.60;;;;;;;;;;5054897;28;20458;-72
2023/02/16 06:30:34;;;;;;;7.57;4.10;;;;;;;;;;5053991;28;20450;-72
2023/02/16 06:33:02;;;;;;;4.27;3.77;;;;;;;;;;5053682;28;20457;-72
2023/02/16 06:35:29;;;;;;;4.50;2.87;;;;;;;;;;5054505;28;20450;-72
2023/02/16 06:37:57;;;;;;;4.43;3.70;;;;;;;;;;5053743;28;20480;-72
2023/02/16 06:40:25;;;;;;;5.17;4.77;;;;;;;;;;5054092;28;20538;-72
2023/02/16 06:42:52;;;;;;;4.97;3.37;;;;;;;;;;5053612;28;20451;-72
2023/02/16 06:45:20;;;;;;;3.00;2.57;;;;;;;;;;5054431;28;20813;-72
2023/02/16 06:47:47;;;;;;;3.43;2.80;;;;;;;;;;5053946;28;20455;-71
2023/02/16 06:50:16;;;;;;;9.37;5.20;;;;;;;;;;5053462;28;20461;-72
2023/02/16 06:52:43;;;;;;;5.93;3.37;;;;;;;;;;5053837;28;20450;-71
2023/02/16 06:55:11;;;;;;;5.80;3.37;;;;;;;;;;5053941;28;20460;-71
2023/02/16 06:57:38;;;;;;;5.30;3.70;;;;;;;;;;5054409;28;20454;-72
2023/02/16 07:00:06;;;;;;;5.37;4.57;;;;;;;;;;5053518;28;20481;-72
2023/02/16 07:02:34;;;;;;;6.87;4.07;;;;;;;;;;5053795;28;20938;-72
2023/02/16 07:05:02;;;;;;;7.80;5.47;;;;;;;;;;5053421;28;20453;-71
2023/02/16 07:07:30;;;;;;;5.80;4.17;;;;;;;;;;5053825;28;20460;-72
2023/02/16 07:09:57;;;;;;;9.27;5.17;;;;;;;;;;5052990;28;20993;-72
2023/02/16 07:12:25;;;;;;;7.70;4.00;;;;;;;;;;5054011;28;20462;-71
2023/02/16 07:14:52;;;;;;;6.50;4.70;;;;;;;;;;5040425;28;20464;-72
2023/02/16 07:17:19;;;;;;;3.60;3.03;;;;;;;;;;5053817;28;20456;-72
2023/02/16 07:19:46;;;;;;;6.80;4.70;;;;;;;;;;5052486;28;21143;-72
2023/02/16 07:22:14;;;;;;;4.07;3.50;;;;;;;;;;5053399;28;20450;-72
2023/02/16 07:24:42;;;;;;;4.00;3.07;;;;;;;;;;5053290;28;20458;-71
2023/02/16 07:27:09;;;;;;;10.90;5.50;;;;;;;;;;5053427;28;20942;-72
2023/02/16 07:29:36;;;;;;;5.70;3.73;;;;;;;;;;5053370;28;20450;-72
2023/02/16 07:32:04;;;;;;;6.17;4.53;;;;;;;;;;5052952;28;20457;-71
2023/02/16 07:34:31;;;;;;;5.33;4.10;;;;;;;;;;5053525;28;20473;-71
2023/02/16 07:36:58;;;;;;;5.10;3.83;;;;;;;;;;5052397;28;20542;-71
2023/02/16 07:39:27;;;;;;;5.53;4.17;;;2.30;99.90;;;;;;5053039;28;20445;-71
2023/02/16 07:41:55;;;;;;;8.90;4.60;;;2.40;1.00;;;;;;5052427;28;20552;-71
2023/02/16 07:44:22;;;;;;;6.40;3.80;;;2.40;99.90;;;;;;5053429;28;20450;-72
2023/02/16 07:46:49;;;;;;;5.60;3.47;;;2.50;99.90;;;;;;5052743;28;20455;-71
2023/02/16 07:49:16;;;;;;;8.90;5.53;;;2.50;99.90;;;;;;5053040;28;20522;-71
2023/02/16 07:51:43;;;;;;;8.27;3.73;;;2.60;99.90;;;;;;5052586;28;20450;-71
2023/02/16 07:54:10;;;;;;;7.90;5.00;;;2.60;99.90;;;;;;5053165;28;20961;-71
2023/02/16 07:56:37;;;;;;;5.07;4.57;;;2.80;99.90;;;;;;5052813;28;20943;-72
2023/02/16 07:59:06;;;;;;;5.17;3.60;;;2.90;1.00;;;;;;5052366;28;20857;-72
2023/02/16 08:01:34;;;;;;;10.37;5.53;;;3.20;99.90;;;;;;5052593;28;20986;-72
2023/02/16 08:04:00;;;;;;;7.50;3.97;;;3.40;67.70;;;;;;5052445;28;20452;-72
2023/02/16 08:06:27;;;;;;;10.17;4.60;;;3.50;1.00;;;;;;5052514;28;20461;-72
2023/02/16 08:08:54;;;;;;;7.70;6.63;;;3.40;56.40;;;;;;5051391;28;20478;-72
2023/02/16 08:11:24;;;;;;;8.07;4.90;;;3.40;99.90;;;;;;5052441;28;20450;-72
2023/02/16 08:13:51;;;;;;;7.30;3.93;;;3.50;1.00;;;;;;5052271;28;20446;-72
2023/02/16 08:16:22;;;;;;;8.37;4.27;;;3.50;99.90;;;;;;5052695;28;20812;-72
2023/02/16 08:18:51;;;;;;;7.50;5.50;;;3.70;1.00;;;;;;5051993;28;20443;-72
2023/02/16 08:21:20;;;;;;;9.37;5.50;;;3.70;2.40;;;;;;5051998;28;21060;-72
2023/02/16 08:23:52;;;;;;;7.90;4.10;;;3.80;1.00;;;;;;5052029;28;20545;-72
2023/02/16 08:26:21;;;;;;;6.57;5.40;;;3.90;1.00;;;;;;5052316;28;20428;-72
2023/02/16 08:28:48;;;;;;;7.77;4.83;;;4.00;1.00;;;;;;5050991;28;20518;-72
2023/02/16 08:31:17;;;;;;;7.37;5.53;;;4.10;99.90;;;;;;5052254;28;20952;-72
2023/02/16 08:33:47;;;;;;;14.03;5.23;;;4.10;1.00;;;;;;5051810;28;20441;-72
2023/02/16 08:36:18;;;;;;;12.43;6.07;;;4.20;99.90;;;;;;5052010;28;20976;-72
2023/02/16 08:38:45;;;;;;;9.17;5.00;;;4.20;1.00;;;;;;5051412;28;20919;-71
2023/02/16 08:41:11;;;;;;;9.53;6.07;;;4.40;99.90;;;;;;5051906;28;20482;-72
2023/02/16 08:43:39;;;;;;;8.70;5.60;;;;;;;;;;5052201;28;20453;-72
2023/02/16 08:46:07;;;;;;;8.77;5.30;;;;;;;;;;5052285;28;20450;-73
2023/02/16 08:48:35;;;;;;;7.10;5.03;;;;;;;;;;5051420;28;20446;-73
2023/02/16 08:51:05;;;;;;;8.00;5.10;;;;;;;;;;5051111;28;20451;-72
2023/02/16 08:53:33;;;;;;;9.33;4.73;;;;;;;;;;5052037;28;20516;-73
2023/02/16 08:56:02;;;;;;;6.40;4.13;;;;;;;;;;5051520;28;20542;-73
2023/02/16 08:58:29;;;;;;;10.03;5.90;;;;;;;;;;5051948;28;20890;-73
2023/02/16 09:00:57;;;;;;;9.60;5.40;;;;;;;;;;5050954;28;20842;-72
2023/02/16 09:03:24;;;;;;;8.23;5.07;;;4.40;34.50;;;;;;5051542;28;20930;-72
2023/02/16 09:05:53;;;;;;;8.80;6.87;;;5.60;1.00;;;;;;5051112;28;20453;-72
2023/02/16 09:08:21;;;;;;;11.57;5.17;;;5.70;1.00;;;;;;5038018;28;20489;-72
2023/02/16 09:10:48;;;;;;;7.83;5.60;;;5.90;1.00;;;;;;5050774;28;20452;-72
2023/02/16 09:13:15;;;;;;;6.80;4.93;;;6.00;99.90;;;;;;5051818;28;20454;-72
2023/02/16 09:15:42;;;;;;;9.10;5.00;;;6.10;99.90;;;;;;5051119;28;20449;-72
2023/02/16 09:18:09;;;;;;;12.00;6.17;;;6.30;98.50;;;;;;5051807;28;20447;-72
2023/02/16 09:20:38;;;;;;;7.87;5.50;;;6.40;8.30;;;;;;5050945;28;20485;-73
2023/02/16 09:23:05;;;;;;;10.10;5.70;;;6.50;1.00;;;;;;5051563;28;20443;-73
2023/02/16 09:25:36;;;;;;;13.53;5.50;;;6.60;1.00;;;;;;5051146;28;20462;-72
2023/02/16 09:28:04;;;;;;;6.53;5.33;;;6.80;1.00;;;;;;5050660;28;20442;-73
2023/02/16 09:30:31;;;;;;;7.37;4.63;;;6.90;1.00;;;;;;5050705;28;20465;-73
2023/02/16 09:32:58;;;;;;;12.10;5.60;;;7.10;1.00;;;;;;5050479;28;20446;-72
2023/02/16 09:35:26;;;;;;;6.80;4.20;;;7.20;1.00;;;;;;5051489;28;20458;-72
2023/02/16 09:37:53;;;;;;;13.77;6.30;;;;;;;;;;5050531;28;20461;-72
2023/02/16 09:40:21;;;;;;;10.70;5.37;;;;;;;;;;5050751;28;20450;-72
2023/02/16 09:42:56;;;;;;;8.53;5.97;;;;;;;;;;5050645;28;20447;-72
2023/02/16 09:45:25;;;;;;;6.10;4.53;;;;;;;;;;5051289;28;20442;-72
2023/02/16 09:47:54;;;;;;;10.67;6.83;;;;;;;;;;5050650;28;20461;-72
2023/02/16 09:50:22;;;;;;;6.93;3.90;;;;;;;;;;5050715;28;20449;-72
2023/02/16 09:52:52;;;;;;;8.27;6.00;;;;;;;;;;5050105;28;21006;-72
2023/02/16 09:55:21;;;;;;;12.40;5.67;;;;;;;;;;5051011;28;20447;-72
2023/02/16 09:57:55;;;;;;;6.73;3.80;;;;;;;;;;5050265;28;20497;-72
2023/02/16 10:00:27;;;;;;;5.90;4.63;;;;;;;;;;5052156;28;20441;-72
2023/02/16 10:02:56;;;;;;;6.10;4.20;;;;;;;;;;5054371;28;20453;-73
2023/02/16 10:05:27;;;;;;;5.43;3.13;;;;;;;;;;5055256;28;20452;-72
2023/02/16 10:07:58;;;;;;;6.73;3.30;;;;;;;;;;5054407;28;20470;-73
2023/02/16 10:10:30;;;;;;;7.43;4.20;;;;;;;;;;5054771;28;20434;-73
2023/02/16 10:13:02;;;;;;;4.80;3.10;;;;;;;;;;5054163;28;20932;-73
2023/02/16 10:15:31;;;;;;;6.43;3.87;;;;;;;;;;5055093;28;20438;-73
2023/02/16 10:17:59;;;;;;;4.80;3.47;;;;;;;;;;5054116;28;20454;-72
2023/02/16 10:20:27;;;;;;;7.70;4.13;;;;;;;;;;5054282;28;20449;-72
2023/02/16 10:22:58;;;;;;;4.03;3.20;;;;;;;;;;5053866;28;20462;-72
2023/02/16 10:25:26;;;;;;;8.23;4.17;;;;;;;;;;5054954;28;20442;-71
2023/02/16 10:27:57;;;;;;;4.53;2.83;;;;;;;;;;5053956;28;20450;-73
2023/02/16 10:30:27;;;;;;;6.20;3.70;;;;;;;;;;5054317;28;20442;-72
2023/02/16 10:33:02;;;;;;;3.83;2.70;;;;;;;;;;5054129;28;20450;-73
2023/02/16 10:35:32;;;;;;;4.37;2.43;;;;;;;;;;5054659;28;20511;-73
2023/02/16 10:38:03;;;;;;;5.80;3.27;;;;;;;;;;5054092;28;20540;-73
2023/02/16 10:40:34;;;;;;;5.07;2.60;;;;;;;;;;5054109;28;20450;-72
2023/02/16 10:43:05;;;;;;;3.87;3.47;;;;;;;;;;5053804;28;20568;-72
2023/02/16 10:45:36;;;;;;;4.03;2.60;;;;;;;;;;5054497;28;20446;-72
2023/02/16 10:48:05;;;;;;;11.33;3.40;;;;;;;;;;5053973;28;20443;-72
2023/02/16 10:50:34;;;;;;;5.33;3.07;;;;;;;;;;5040798;28;20442;-72
2023/02/16 10:53:02;;;;;;;11.30;2.50;;;;;;;;;;5053384;28;20450;-73
2023/02/16 10:55:29;;;;;;;6.40;3.07;;;;;;;;;;5054365;28;20442;-73
2023/02/16 10:57:58;;;;;;;7.00;3.47;;;;;;;;;;5053624;28;20458;-72
2023/02/16 11:00:30;;;;;;;8.63;4.40;;;;;;;;;;5053852;28;20809;-73
2023/02/16 11:02:57;;;;;;;6.80;4.17;;;;;;;;;;5053267;28;20923;-73
2023/02/16 11:05:31;;;;;;;4.93;4.10;;;;;;;;;;5054126;28;20450;-73
2023/02/16 11:08:00;;;;;;;4.07;2.97;;;;;;;;;;5053452;28;20465;-72
2023/02/16 11:10:35;;;;;;;10.23;3.13;;;;;;;;;;5053676;28;20454;-73
2023/02/16 11:13:03;;;;;;;5.43;3.40;;;;;;;;;;5052754;28;20813;-73
2023/02/16 11:15:30;;;;;;;8.07;2.80;;;;;;;;;;5053918;28;20452;-73
2023/02/16 11:17:58;;;;;;;5.20;3.40;;;;;;;;;;5053350;28;20453;-73
2023/02/16 11:20:28;;;;;;;4.00;2.57;;;;;;;;;;5053567;28;20545;-73
2023/02/16 11:23:12;;;;;;;10.03;3.07;;;;;;;;;;5052783;28;20485;-73
2023/02/16 11:25:39;;;;;;;3.00;2.70;;;;;;;;;;5053632;28;20446;-73
2023/02/16 11:28:07;;;;;;;4.17;2.70;;;;;;;;;;5053858;28;20458;-73
2023/02/16 11:30:35;;;;;;;4.07;2.33;;;;;;;;;;5052810;28;20935;-73
2023/02/16 11:33:03;;;;;;;3.47;2.20;;;;;;;;;;5053091;28;20457;-73
2023/02/16 11:35:31;;;;;;;4.23;2.67;;;;;;;;;;5053531;28;20734;-73
2023/02/16 11:38:00;;;;;;;3.57;2.70;;;;;;;;;;5052555;28;20810;-73
2023/02/16 11:40:28;;;;;;;7.63;2.63;;;;;;;;;;5052951;28;20455;-73
2023/02/16 11:42:57;;;;;;;4.90;2.83;;;;;;;;;;5052816;28;20485;-73
2023/02/16 11:45:26;;;;;;;4.10;2.13;;;;;;;;;;5053365;28;20447;-73
2023/02/16 11:47:55;;;;;;;4.50;2.43;;;;;;;;;;5052892;28;20495;-73
2023/02/16 11:50:27;;;;;;;3.80;2.57;;;;;;;;;;5052493;28;20450;-73
2023/02/16 11:52:56;;;;;;;4.43;2.50;;;;;;;;;;5052389;28;20965;-72
2023/02/16 11:55:26;;;;;;;2.83;2.03;;;;;;;;;;5052801;28;20449;-73
2023/02/16 11:57:55;;;;;;;5.00;3.20;;;;;;;;;;5052552;28;20472;-70
2023/02/16 12:00:25;;;;;;;5.07;2.73;;;;;;;;;;5040649;28;20525;-73
2023/02/16 12:03:07;;;;;;;3.87;2.80;;;;;;;;;;5052315;28;20486;-72
2023/02/16 12:05:40;;;;;;;2.83;2.20;;;;;;;;;;5053097;28;20488;-73
2023/02/16 12:08:15;;;;;;;4.03;2.60;;;;;;;;;;5050814;28;20486;-73
2023/02/16 12:10:50;;;;;;;4.60;2.87;;;;;;;;;;5051754;28;20450;-73
2023/02/16 12:13:22;;;;;;;4.43;3.30;;;;;;;;;;5052950;28;20837;-73
2023/02/16 12:15:51;;;;;;;4.73;3.73;;;;;;;;;;5052247;28;20454;-72
2023/02/16 12:18:24;;;;;;;8.13;4.80;;;;;;;;;;5052618;28;20446;-73
2023/02/16 12:20:56;;;;;;;8.40;5.60;;;;;;;;;;5051868;28;21073;-73
2023/02/16 12:23:28;;;;;;;6.40;4.20;;;;;;;;;;5051389;28;20446;-73
2023/02/16 12:26:02;;;;;;;10.87;4.90;;;;;;;;;;5052090;28;20446;-73
2023/02/16 12:28:34;;;;;;;11.43;5.13;;;;;;;;;;5051862;28;20923;-73
2023/02/16 12:31:08;;;;;;;7.93;4.30;;;;;;;;;;5051685;28;20443;-73
2023/02/16 12:33:39;;;;;;;7.83;5.37;;;;;;;;;;5052524;28;20438;-73
2023/02/16 12:36:19;;;;;;;9.37;5.00;;;;;;;;;;5052609;28;20537;-73
2023/02/16 12:38:49;;;;;;;9.10;5.07;;;;;;;;;;5050942;28;20462;-71
2023/02/16 12:41:26;;;;;;;4.83;4.33;;;;;;;;;;5052330;28;20474;-72
2023/02/16 12:43:54;;;;;;;9.40;4.73;;;;;;;;;;5052002;28;20526;-73
2023/02/16 12:46:25;;;;;;;5.90;4.17;;;;;;;;;;5051974;28;20997;-73
2023/02/16 12:48:56;;;;;;;5.33;4.00;;;;;;;;;;5050984;28;20943;-73
2023/02/16 12:51:27;;;;;;;6.80;3.63;;;;;;;;;;5051961;28;20445;-72
2023/02/16 12:53:59;;;;;;;5.17;4.10;;;;;;;;;;5051675;28;20779;-73
2023/02/16 12:56:31;;;;;;;4.60;4.20;;;;;;;;;;5052069;28;20795;-73
2023/02/16 12:59:04;;;;;;;6.37;4.23;;;;;;;;;;5051429;28;20450;-73
2023/02/16 13:01:34;;;;;;;4.30;3.90;;;;;;;;;;5053053;28;20473;-73
2023/02/16 13:04:03;;;;;;;5.40;3.27;;;;;;;;;;5051954;28;20450;-73
2023/02/16 13:06:36;;;;;;;6.50;3.90;;;;;;;;;;5051922;28;20473;-72
2023/02/16 13:09:07;;;;;;;8.47;4.37;;;;;;;;;;5051006;28;20555;-73
2023/02/16 13:11:38;;;;;;;6.30;4.30;;;;;;;;;;5038231;28;20455;-73
2023/02/16 13:14:12;;;;;;;8.13;5.30;;;;;;;;;;5051860;28;20482;-73
2023/02/16 13:16:43;;;;;;;6.93;3.97;;;;;;;;;;5051585;28;20442;-73
2023/02/16 13:19:12;;;;;;;5.77;3.67;;;;;;;;;;5051347;28;20447;-71
2023/02/16 13:21:54;;;;;;;5.53;4.07;;;;;;;;;;5051508;28;20486;-73
2023/02/16 13:24:26;;;;;;;7.87;3.97;;;;;;;;;;5018379;28;20888;-72
2023/02/16 13:27:01;;;;;;;5.23;3.53;;;;;;;;;;5051167;28;20442;-73
2023/02/16 13:29:43;;;;;;;4.97;3.67;;;;;;;;;;5038158;28;20436;-73
2023/02/16 13:32:19;;;;;;;7.50;3.30;;;;;;;;;;5051077;28;20446;-72
2023/02/16 13:35:07;;;;;;;6.20;4.30;;;;;;;;;;5050306;28;20453;-72
2023/02/16 13:37:41;;;;;;;5.07;3.50;;;;;;;;;;5051182;28;20454;-73
2023/02/16 13:40:19;;;;;;;5.30;3.73;;;;;;;;;;5050965;28;20446;-73
2023/02/16 13:42:55;;;;;;;4.80;3.30;;;;;;;;;;5050743;28;20470;-72
2023/02/16 13:45:24;;;;;;;7.47;3.70;;;;;;;;;;5051260;28;20438;-72
2023/02/16 13:47:52;;;;;;;5.40;4.07;;;;;;;;;;5050736;28;20449;-73
2023/02/16 13:50:31;;;;;;;7.20;3.87;;;;;;;;;;5050327;28;20448;-72
2023/02/16 13:53:01;;;;;;;5.00;3.57;;;;;;;;;;5050404;28;20442;-73
2023/02/16 13:55:30;;;;;;;7.50;3.60;;;;;;;;;;5051174;28;20548;-73
2023/02/16 13:58:04;;;;;;;11.10;4.63;;;;;;;;;;5050514;28;20450;-73
2023/02/16 14:00:33;;;;;;;8.07;4.70;;;;;;;;;;5050581;28;20451;-72
2023/02/16 14:03:02;;;;;;;7.50;4.17;;;;;;;;;;5050091;28;20991;-73
2023/02/16 14:05:30;;;;;;;6.70;4.13;;;;;;;;;;5051034;28;20446;-73
2023/02/16 14:08:26;;;;;;;5.70;4.10;;;;;;;;;;5050313;28;20458;-72
2023/02/16 14:10:58;;;;;;;9.23;4.60;;;;;;;;;;5015228;28;20892;-73
2023/02/16 14:13:29;;;;;;;6.60;3.93;;;;;;;;;;5050938;28;20544;-72
2023/02/16 14:15:57;;;;;;;8.63;4.30;;;;;;;;;;5050352;28;20537;-73
2023/02/16 14:18:28;;;;;;;7.23;4.43;;;;;;;;;;5050511;28;20446;-72
2023/02/16 14:21:01;;;;;;;8.47;4.63;;;;;;;;;;5050390;28;20447;-73
2023/02/16 14:23:33;;;;;;;9.20;5.30;;;;;;;;;;5050712;28;20470;-73
2023/02/16 14:26:04;;;;;;;7.00;4.33;;;;;;;;;;5050093;28;21158;-73
2023/02/16 14:28:50;;;;;;;6.60;4.50;;;;;;;;;;5050222;28;21002;-73
2023/02/16 14:31:21;;;;;;;6.87;4.00;;;;;;;;;;5050574;28;20454;-71
2023/02/16 14:33:53;;;;;;;7.97;4.50;;;;;;;;;;5050168;28;20446;-72
2023/02/16 14:36:23;;;;;;;7.50;4.80;;;;;;;;;;5050884;28;20465;-72
2023/02/16 14:38:51;;;;;;;8.53;5.17;;;;;;;;;;5049153;28;20957;-72
2023/02/16 14:41:25;;;;;;;9.50;4.70;;;;;;;;;;5050664;28;20450;-73
2023/02/16 14:43:54;;;;;;;14.97;5.67;;;;;;;;;;5050127;28;20977;-73
2023/02/16 14:46:37;;;;;;;10.90;5.27;;;;;;;;;;5050854;28;20450;-73
2023/02/16 14:49:22;;;;;;;8.70;5.27;;;;;;;;;;5053606;28;20450;-73
2023/02/16 14:51:58;;;;;;;5.77;4.40;;;;;;;;;;5053668;28;20448;-72
2023/02/16 14:54:36;;;;;;;7.33;4.90;;;;;;;;;;5054084;28;20442;-73
2023/02/16 14:57:05;;;;;;;8.60;4.60;;;;;;;;;;5053390;28;20438;-72
2023/02/16 14:59:35;;;;;;;7.47;4.20;;;;;;;;;;5053362;28;20481;-72
2023/02/16 15:02:23;;;;;;;7.77;4.97;;;;;;;;;;5053545;28;20446;-73
2023/02/16 15:04:51;;;;;;;5.80;3.67;;;;;;;;;;5053724;28;20446;-72
2023/02/16 15:07:20;;;;;;;7.50;4.80;;;;;;;;;;5053982;28;20837;-72
2023/02/16 15:09:47;;;;;;;9.53;4.57;;;;;;;;;;5053153;28;20539;-71
2023/02/16 15:12:21;;;;;;;7.90;5.50;;;;;;;;;;5053990;28;20808;-73
2023/02/16 15:14:49;;;;;;;7.77;5.13;;;;;;;;;;5053382;28;20452;-72
2023/02/16 15:17:20;;;;;;;7.27;5.07;;;;;;;;;;5053662;28;20927;-73
2023/02/16 15:19:48;;;;;;;7.60;4.70;;;;;;;;;;5052765;28;20924;-72
2023/02/16 15:22:20;;;;;;;7.30;4.67;;;;;;;;;;5053308;28;20481;-73
2023/02/16 15:24:55;;;;;;;7.30;4.87;;;;;;;;;;5053008;28;20541;-71
2023/02/16 15:27:22;;;;;;;9.93;5.00;;;;;;;;;;5053764;28;20446;-73